createdAt,value
2022-08-26T00:04:12.201Z,25.45
2022-08-26T00:14:18.805Z,20.27
2022-08-26T00:19:21.140Z,19.80
2022-08-26T00:24:23.650Z,28.23
2022-08-26T00:29:25.866Z,26.23
2022-08-26T00:34:28.663Z,21.00
2022-08-26T00:39:31.667Z,22.02
2022-08-26T00:44:34.307Z,22.80
2022-08-26T00:49:43.568Z,22.92
2022-08-26T00:55:06.949Z,25.92
2022-08-26T01:00:14.507Z,22.55
2022-08-26T01:05:18.367Z,21.98
2022-08-26T01:10:26.343Z,27.83
2022-08-26T01:15:37.478Z,27.23
2022-08-26T01:21:24.760Z,33.00
2022-08-26T01:26:34.780Z,37.28
2022-08-26T01:31:45.540Z,38.20
2022-08-26T01:36:56.711Z,39.70
2022-08-26T01:42:03.233Z,47.00
2022-08-26T01:47:06.853Z,56.22
2022-08-26T01:52:11.562Z,50.47
2022-08-26T01:57:19.014Z,51.40
2022-08-26T02:02:21.411Z,57.60
2022-08-26T02:07:26.826Z,77.95
2022-08-26T02:12:30.705Z,93.85
2022-08-26T02:17:45.845Z,90.40
2022-08-26T02:22:48.377Z,101.28
2022-08-26T02:27:51.643Z,114.13
2022-08-26T02:32:53.871Z,121.50
2022-08-26T02:37:56.624Z,142.87
2022-08-26T02:43:00.174Z,179.68
2022-08-26T02:48:15.593Z,167.07
2022-08-26T02:53:24.485Z,144.98
2022-08-26T02:58:27.358Z,139.73
2022-08-26T03:03:29.572Z,129.25
2022-08-26T03:08:32.663Z,118.57
2022-08-26T03:13:34.824Z,91.70
2022-08-26T03:18:37.260Z,84.83
2022-08-26T03:23:41.985Z,77.80
2022-08-26T03:28:44.911Z,78.25
2022-08-26T03:33:47.062Z,68.20
2022-08-26T03:38:51.721Z,61.22
2022-08-26T03:43:55.014Z,64.85
2022-08-26T03:49:01.339Z,70.85
2022-08-26T03:54:04.120Z,69.78
2022-08-26T03:59:07.681Z,76.20
2022-08-26T04:09:20.889Z,67.32
2022-08-26T04:14:25.536Z,63.90
2022-08-26T04:19:27.706Z,64.68
2022-08-26T04:24:29.901Z,68.47
2022-08-26T04:29:32.356Z,68.57
2022-08-26T04:34:36.364Z,62.58
2022-08-26T04:39:38.539Z,64.22
2022-08-26T04:44:40.730Z,58.03
2022-08-26T04:49:42.918Z,68.00
2022-08-26T04:54:45.098Z,69.75
2022-08-26T04:59:47.568Z,58.08
2022-08-26T05:04:51.948Z,59.90
2022-08-26T05:09:54.142Z,63.33
2022-08-26T05:14:56.812Z,63.25
2022-08-26T05:19:59.635Z,60.33
2022-08-26T05:25:02.037Z,62.15
2022-08-26T05:30:04.562Z,66.05
2022-08-26T05:35:08.996Z,54.88
2022-08-26T05:40:11.806Z,51.95
2022-08-26T05:50:16.216Z,46.75
2022-08-26T05:55:18.733Z,49.17
2022-08-26T06:00:20.895Z,45.47
2022-08-26T06:05:23.142Z,43.58
2022-08-26T06:10:33.134Z,40.85
2022-08-26T06:15:42.021Z,43.58
2022-08-26T06:20:49.529Z,37.80
2022-08-26T06:26:00.463Z,36.97
2022-08-26T06:31:03.595Z,39.00
2022-08-26T06:36:06.674Z,40.97
2022-08-26T06:41:09.125Z,36.95
2022-08-26T06:46:13.563Z,41.47
2022-08-26T06:51:23.680Z,35.85
2022-08-26T06:56:29.326Z,35.60
2022-08-26T07:01:35.558Z,34.22
2022-08-26T07:06:40.082Z,39.67
2022-08-26T07:11:42.273Z,30.02
2022-08-26T07:16:44.610Z,28.85
2022-08-26T07:21:46.872Z,29.83
2022-08-26T07:26:51.551Z,31.42
2022-08-26T07:31:53.904Z,32.22
2022-08-26T07:36:59.031Z,31.75
2022-08-26T07:42:07.535Z,28.00
2022-08-26T07:47:25.115Z,27.63
2022-08-26T07:52:30.219Z,27.40
2022-08-26T07:57:32.919Z,21.75
2022-08-26T08:02:37.077Z,21.75
2022-08-26T08:07:44.865Z,16.80
2022-08-26T08:12:48.425Z,18.33
2022-08-26T08:17:54.710Z,20.38
2022-08-26T08:23:03.469Z,16.77
2022-08-26T08:28:05.748Z,23.42
2022-08-26T08:38:44.954Z,21.00
2022-08-26T08:43:47.605Z,23.52
2022-08-26T08:48:55.805Z,22.63
2022-08-26T08:53:59.157Z,17.90
2022-08-26T08:59:20.745Z,22.88
2022-08-26T09:04:23.526Z,18.02
2022-08-26T09:14:34.055Z,19.08
2022-08-26T09:19:40.178Z,24.00
2022-08-26T09:24:48.491Z,17.13
2022-08-26T09:29:51.357Z,17.27
2022-08-26T09:35:00.976Z,19.83
2022-08-26T09:40:17.056Z,17.55
2022-08-26T09:45:28.097Z,24.50
2022-08-26T09:50:52.959Z,14.20
2022-08-26T09:56:25.847Z,14.30
2022-08-26T10:01:42.045Z,13.75
2022-08-26T10:07:03.420Z,13.85
2022-08-26T10:12:16.484Z,15.45
2022-08-26T10:17:40.619Z,20.33
2022-08-26T10:22:52.574Z,17.40
2022-08-26T10:28:03.396Z,17.57
2022-08-26T10:33:09.541Z,16.75
2022-08-26T10:38:15.893Z,15.02
2022-08-26T10:43:35.860Z,12.57
2022-08-26T10:48:49.382Z,12.48
2022-08-26T10:54:01.614Z,7.38
2022-08-26T10:59:17.522Z,10.63
2022-08-26T11:04:25.586Z,8.95
2022-08-26T11:09:46.487Z,9.93
2022-08-26T11:14:58.482Z,8.50
2022-08-26T11:20:03.948Z,13.25
2022-08-26T11:25:13.577Z,9.15
2022-08-26T11:30:15.663Z,10.35
2022-08-26T11:35:20.537Z,6.00
2022-08-26T11:40:31.868Z,14.07
2022-08-26T11:45:36.049Z,7.18
2022-08-26T11:50:39.497Z,10.18
2022-08-26T12:00:54.760Z,11.80
2022-08-26T12:05:58.192Z,10.07
2022-08-26T12:11:05.802Z,4.72
2022-08-26T12:16:09.076Z,10.68
2022-08-26T12:21:21.506Z,7.47
2022-08-26T12:26:30.447Z,8.87
2022-08-26T12:31:41.339Z,7.88
2022-08-26T12:36:52.047Z,10.03
2022-08-26T12:41:55.994Z,10.85
2022-08-26T12:47:04.203Z,10.02
2022-08-26T12:52:19.331Z,14.48
2022-08-26T12:57:30.647Z,9.07
2022-08-26T13:02:37.581Z,9.23
2022-08-26T13:07:39.749Z,8.48
2022-08-26T13:12:41.893Z,11.32
2022-08-26T13:17:44.065Z,12.23
2022-08-26T13:27:55.966Z,11.35
2022-08-26T13:33:00.411Z,11.75
2022-08-26T13:38:04.567Z,11.35
2022-08-26T13:43:10.392Z,10.50
2022-08-26T13:48:12.598Z,8.27
2022-08-26T13:53:16.652Z,4.88
2022-08-26T13:58:18.814Z,9.15
2022-08-26T14:03:21.267Z,6.65
2022-08-26T14:13:25.760Z,5.15
2022-08-26T14:18:35.499Z,5.00
2022-08-26T14:23:40.617Z,2.95
2022-08-26T14:28:42.793Z,8.18
2022-08-26T14:33:45.318Z,7.68
2022-08-26T14:43:54.075Z,4.53
2022-08-26T14:49:01.047Z,5.90
2022-08-26T14:54:04.333Z,5.10
2022-08-26T14:59:06.591Z,5.53
2022-08-26T15:04:08.787Z,3.40
2022-08-26T15:09:11.409Z,4.97
2022-08-26T15:14:18.932Z,5.15
2022-08-26T15:19:23.828Z,3.85
2022-08-26T15:24:26.811Z,6.72
2022-08-26T15:29:29.003Z,6.95
2022-08-26T15:34:31.394Z,7.43
2022-08-26T15:39:34.423Z,11.40
2022-08-26T15:44:36.683Z,5.55
2022-08-26T15:49:40.192Z,9.25
2022-08-26T15:54:42.376Z,9.85
2022-08-26T15:59:45.587Z,7.60
2022-08-26T16:04:47.763Z,7.78
2022-08-26T16:09:52.028Z,11.98
2022-08-26T16:14:56.397Z,11.05
2022-08-26T16:19:58.675Z,8.52
2022-08-26T16:25:00.839Z,8.52
2022-08-26T16:30:06.963Z,7.57
2022-08-26T16:35:09.167Z,8.88
2022-08-26T16:40:11.611Z,12.40
2022-08-26T16:45:14.100Z,6.25
2022-08-26T16:50:18.562Z,6.82
2022-08-26T16:55:22.394Z,10.23
2022-08-26T17:00:27.671Z,9.00
2022-08-26T17:05:29.989Z,7.13
2022-08-26T17:10:32.909Z,3.63
2022-08-26T17:15:35.230Z,5.68
2022-08-26T17:20:37.507Z,4.95
2022-08-26T17:25:40.268Z,9.32
2022-08-26T17:30:42.805Z,4.93
2022-08-26T17:35:45.054Z,4.97
2022-08-26T17:40:47.403Z,6.85
2022-08-26T17:45:49.789Z,7.72
2022-08-26T17:50:52.464Z,9.77
2022-08-26T17:55:54.653Z,5.63
2022-08-26T18:00:56.808Z,5.15
2022-08-26T18:05:59.016Z,5.13
2022-08-26T18:11:01.228Z,6.45
2022-08-26T18:16:06.488Z,4.25
2022-08-26T18:21:15.959Z,4.57
2022-08-26T18:26:26.750Z,7.85
2022-08-26T18:31:29.994Z,7.82
2022-08-26T18:36:36.855Z,5.28
2022-08-26T18:41:51.233Z,6.68
2022-08-26T18:46:53.463Z,4.75
2022-08-26T18:51:55.620Z,3.70
2022-08-26T18:56:57.911Z,3.10
2022-08-26T19:02:00.251Z,3.65
2022-08-26T19:07:02.677Z,6.03
2022-08-26T19:12:05.369Z,6.90
2022-08-26T19:17:07.896Z,5.82
2022-08-26T19:22:10.094Z,6.63
2022-08-26T19:27:14.871Z,5.43
2022-08-26T19:32:17.286Z,5.35
2022-08-26T19:37:21.408Z,5.13
2022-08-26T19:42:23.561Z,5.20
2022-08-26T19:47:25.801Z,8.30
2022-08-26T19:52:30.174Z,4.10
2022-08-26T19:57:33.520Z,6.05
2022-08-26T20:02:35.812Z,6.65
2022-08-26T20:07:38.096Z,5.90
2022-08-26T20:12:41.153Z,3.60
2022-08-26T20:22:45.276Z,6.82
2022-08-26T20:27:47.686Z,4.77
2022-08-26T20:32:49.864Z,4.53
2022-08-26T20:37:51.989Z,6.50
2022-08-26T20:42:54.231Z,6.47
2022-08-26T20:47:56.443Z,5.93
2022-08-26T20:52:59.161Z,4.77
2022-08-26T20:58:01.412Z,4.85
2022-08-26T21:03:03.647Z,4.85
2022-08-26T21:08:05.877Z,4.60
2022-08-26T21:13:08.261Z,4.57
2022-08-26T21:18:11.523Z,8.38
2022-08-26T21:23:13.917Z,3.17
2022-08-26T21:28:16.351Z,3.30
2022-08-26T21:33:18.591Z,5.03
2022-08-26T21:38:21.691Z,3.70
2022-08-26T21:43:35.220Z,4.45
2022-08-26T21:48:39.171Z,4.18
2022-08-26T21:53:41.381Z,5.22
2022-08-26T21:58:43.657Z,2.40
2022-08-26T22:03:47.243Z,2.30
2022-08-26T22:08:50.437Z,3.13
2022-08-26T22:13:52.733Z,3.35
2022-08-26T22:18:54.931Z,7.40
2022-08-26T22:23:58.665Z,3.97
2022-08-26T22:29:02.017Z,4.00
2022-08-26T22:34:09.220Z,4.93
2022-08-26T22:39:13.178Z,4.75
2022-08-26T22:44:16.894Z,5.20
2022-08-26T22:49:19.066Z,4.28
2022-08-26T22:54:21.235Z,1.90
2022-08-26T22:59:23.371Z,5.00
2022-08-26T23:04:25.574Z,4.03
2022-08-26T23:09:27.692Z,4.70
2022-08-26T23:14:32.091Z,5.63
2022-08-26T23:19:34.261Z,2.47
2022-08-26T23:24:36.388Z,4.43
2022-08-26T23:29:38.545Z,3.03
2022-08-26T23:34:40.698Z,7.47
2022-08-26T23:39:43.620Z,4.65
2022-08-26T23:44:45.827Z,5.87
2022-08-26T23:49:47.972Z,6.60
2022-08-26T23:54:50.345Z,2.53
2022-08-26T23:59:52.856Z,4.47
